Latest Weather Observations for Banana Bank

IDQ60801

Issued at 9:32 am EST Thursday 30 July 2015 (issued every 30 minutes, with the page automatically refreshed every 10 minutes)

About weather observations | Map of weather stations | Latest weather observations for QLD | Other Formats
Station Details ID: 040925 Name: BANANA BANK NORTH BEACON Lat: -27.53 Lon: 153.33 Height: 7.0 m
Data from the previous 72 hours. | See also: Recent months for locations in Queensland
Date/Time
EST
Temp
°C
App
Temp
°C
Dew
Point
Rel
Hum
%
Delta-T
°C
Wind Press
QNH
hPa
Press
MSL
hPa
Rain
since 9 am
mm
Dir
 
Spd
km/h
Gust
km/h
Spd
kts
Gust
kts
30/09:30am - - - - - SW 9 9 5 5 - - -
30/09:00am - - - - - SW 7 9 4 5 - - -
30/08:30am - - - - - SW 9 11 5 6 - - -
30/08:00am - - - - - SW 7 9 4 5 - - -
30/07:30am - - - - - WSW 6 9 3 5 - - -
30/07:00am - - - - - SSW 7 9 4 5 - - -
30/06:30am - - - - - S 7 9 4 5 - - -
30/06:00am - - - - - SSW 11 13 6 7 - - -
30/05:30am - - - - - SSW 13 15 7 8 - - -
30/05:00am - - - - - S 15 17 8 9 - - -
30/04:30am - - - - - SSW 15 17 8 9 - - -
30/04:00am - - - - - SSW 15 17 8 9 - - -
30/03:30am - - - - - SSW 20 24 11 13 - - -
30/03:00am - - - - - SSW 24 28 13 15 - - -
30/02:30am - - - - - SSW 9 11 5 6 - - -
30/02:00am - - - - - SW 6 6 3 3 - - -
30/01:30am - - - - - SSW 4 6 2 3 - - -
30/01:00am - - - - - S 6 7 3 4 - - -
30/12:30am - - - - - SW 6 7 3 4 - - -
30/12:00am - - - - - WSW 4 6 2 3 - - -
 
Date/Time
EST
Temp
°C
App
Temp
°C
Dew
Point
Rel
Hum
%
Delta-T
°C
Wind Press
QNH
hPa
Press
MSL
hPa
Rain
since 9 am
mm
Dir
 
Spd
km/h
Gust
km/h
Spd
kts
Gust
kts
29/11:30pm - - - - - WSW 6 9 3 5 - - -
29/11:00pm - - - - - SSW 7 9 4 5 - - -
29/10:30pm - - - - - SSW 7 9 4 5 - - -
29/10:00pm - - - - - SW 7 11 4 6 - - -
29/09:30pm - - - - - S 9 11 5 6 - - -
29/09:00pm - - - - - S 6 7 3 4 - - -
29/08:30pm - - - - - SSE 9 11 5 6 - - -
29/08:00pm - - - - - S 7 9 4 5 - - -
29/07:30pm - - - - - SSE 9 9 5 5 - - -
29/07:00pm - - - - - SE 9 11 5 6 - - -
29/06:30pm - - - - - SE 11 13 6 7 - - -
29/06:00pm - - - - - SE 11 13 6 7 - - -
29/05:30pm - - - - - SE 13 17 7 9 - - -
29/05:00pm - - - - - SE 17 19 9 10 - - -
29/04:30pm - - - - - SE 20 24 11 13 - - -
29/04:00pm - - - - - SE 20 24 11 13 - - -
29/03:30pm - - - - - SE 19 20 10 11 - - -
29/03:00pm - - - - - SE 19 22 10 12 - - -
29/02:30pm - - - - - SE 19 22 10 12 - - -
29/02:00pm - - - - - SE 20 22 11 12 - - -
29/01:30pm - - - - - SE 19 22 10 12 - - -
29/01:00pm - - - - - SSE 17 20 9 11 - - -
29/12:30pm - - - - - SE 19 20 10 11 - - -
29/12:00pm - - - - - SE 19 22 10 12 - - -
29/11:30am - - - - - S 11 15 6 8 - - -
29/11:00am - - - - - S 13 15 7 8 - - -
29/10:30am - - - - - S 17 20 9 11 - - -
29/10:00am - - - - - SSE 13 15 7 8 - - -
29/09:30am - - - - - S 13 17 7 9 - - -
29/09:00am - - - - - SSW 11 13 6 7 - - -
29/08:30am - - - - - SW 7 9 4 5 - - -
29/08:00am - - - - - SSW 11 15 6 8 - - -
29/07:30am - - - - - SW 9 13 5 7 - - -
29/07:00am - - - - - SSW 11 15 6 8 - - -
29/06:30am - - - - - SW 13 17 7 9 - - -
29/06:00am - - - - - SSW 13 17 7 9 - - -
29/05:30am - - - - - SSW 15 19 8 10 - - -
29/05:00am - - - - - SSW 11 13 6 7 - - -
29/04:30am - - - - - SSW 11 13 6 7 - - -
29/04:00am - - - - - SW 9 13 5 7 - - -
29/03:30am - - - - - WSW 7 11 4 6 - - -
29/03:00am - - - - - SSW 9 13 5 7 - - -
29/02:30am - - - - - SW 13 15 7 8 - - -
29/02:00am - - - - - SW 13 17 7 9 - - -
29/01:30am - - - - - SSW 13 17 7 9 - - -
29/01:00am - - - - - S 15 19 8 10 - - -
29/12:30am - - - - - S 15 17 8 9 - - -
29/12:00am - - - - - S 17 19 9 10 - - -
 
Date/Time
EST
Temp
°C
App
Temp
°C
Dew
Point
Rel
Hum
%
Delta-T
°C
Wind Press
QNH
hPa
Press
MSL
hPa
Rain
since 9 am
mm
Dir
 
Spd
km/h
Gust
km/h
Spd
kts
Gust
kts
28/11:30pm - - - - - S 17 20 9 11 - - -
28/11:00pm - - - - - SSW 17 19 9 10 - - -
28/10:30pm - - - - - S 20 24 11 13 - - -
28/10:00pm - - - - - S 20 24 11 13 - - -
28/09:30pm - - - - - S 22 26 12 14 - - -
28/09:00pm - - - - - S 22 24 12 13 - - -
28/08:30pm - - - - - S 22 28 12 15 - - -
28/08:00pm - - - - - SSE 22 28 12 15 - - -
28/07:30pm - - - - - SSE 24 30 13 16 - - -
28/07:00pm - - - - - SSE 26 30 14 16 - - -
28/06:30pm - - - - - SSE 26 32 14 17 - - -
28/06:00pm - - - - - SSE 26 32 14 17 - - -
28/05:30pm - - - - - SE 28 32 15 17 - - -
28/05:00pm - - - - - SE 28 33 15 18 - - -
28/04:30pm - - - - - SE 28 32 15 17 - - -
28/04:00pm - - - - - SE 28 33 15 18 - - -
28/03:30pm - - - - - SE 28 35 15 19 - - -
28/03:00pm - - - - - SE 28 33 15 18 - - -
28/02:30pm - - - - - SE 26 30 14 16 - - -
28/02:00pm - - - - - SE 26 30 14 16 - - -
28/01:30pm - - - - - SSE 22 26 12 14 - - -
28/01:00pm - - - - - SSE 24 30 13 16 - - -
28/12:30pm - - - - - SSE 26 32 14 17 - - -
28/12:00pm - - - - - SSE 26 32 14 17 - - -
28/11:30am - - - - - SSE 28 32 15 17 - - -
28/11:00am - - - - - SSE 28 35 15 19 - - -
28/10:30am - - - - - SSE 26 32 14 17 - - -
28/10:00am - - - - - S 20 24 11 13 - - -
28/09:30am - - - - - S 19 22 10 12 - - -
28/09:00am - - - - - SSW 15 19 8 10 - - -
28/08:30am - - - - - SW 15 17 8 9 - - -
28/08:00am - - - - - SW 15 17 8 9 - - -
28/07:30am - - - - - SW 13 15 7 8 - - -
28/07:00am - - - - - SSW 15 17 8 9 - - -
28/06:30am - - - - - SW 15 19 8 10 - - -
28/06:00am - - - - - SW 13 15 7 8 - - -
28/05:30am - - - - - SW 15 19 8 10 - - -
28/05:00am - - - - - SW 13 17 7 9 - - -
28/04:30am - - - - - SW 15 19 8 10 - - -
28/04:00am - - - - - SW 17 20 9 11 - - -
28/03:30am - - - - - SW 19 20 10 11 - - -
28/03:00am - - - - - WSW 15 20 8 11 - - -
28/02:30am - - - - - SW 19 22 10 12 - - -
28/02:00am - - - - - SW 19 20 10 11 - - -
28/01:30am - - - - - SW 17 19 9 10 - - -
28/01:00am - - - - - WSW 15 20 8 11 - - -
28/12:30am - - - - - WSW 19 22 10 12 - - -
28/12:00am - - - - - WSW 19 24 10 13 - - -
 
Date/Time
EST
Temp
°C
App
Temp
°C
Dew
Point
Rel
Hum
%
Delta-T
°C
Wind Press
QNH
hPa
Press
MSL
hPa
Rain
since 9 am
mm
Dir
 
Spd
km/h
Gust
km/h
Spd
kts
Gust
kts
27/11:30pm - - - - - WSW 13 20 7 11 - - -
27/11:00pm - - - - - WSW 15 22 8 12 - - -
27/10:30pm - - - - - WSW 13 19 7 10 - - -
27/10:00pm - - - - - WSW 11 15 6 8 - - -
27/09:30pm - - - - - WSW 13 19 7 10 - - -
27/09:00pm - - - - - WSW 7 13 4 7 - - -
27/08:30pm - - - - - WSW 4 7 2 4 - - -
27/08:00pm - - - - - WSW 4 6 2 3 - - -
27/07:30pm - - - - - WSW 6 7 3 4 - - -
27/07:00pm - - - - - W 7 9 4 5 - - -
27/06:30pm - - - - - WNW 6 6 3 3 - - -
27/06:00pm - - - - - CALM 0 6 0 3 - - -
27/05:30pm - - - - - SSE 7 9 4 5 - - -
27/05:00pm - - - - - SE 11 15 6 8 - - -
27/04:30pm - - - - - ESE 13 15 7 8 - - -
27/04:00pm - - - - - ESE 17 20 9 11 - - -
27/03:30pm - - - - - SSE 15 22 8 12 - - -
27/03:00pm - - - - - SSW 15 19 8 10 - - -
27/02:30pm - - - - - SSE 6 11 3 6 - - -
27/02:00pm - - - - - SSW 7 9 4 5 - - -
27/01:30pm - - - - - SSW 7 13 4 7 - - -
27/01:00pm - - - - - SW 15 19 8 10 - - -
27/12:30pm - - - - - SW 15 19 8 10 - - -
27/12:00pm - - - - - WSW 13 20 7 11 - - -
27/11:30am - - - - - SW 13 17 7 9 - - -
27/11:00am - - - - - SW 13 17 7 9 - - -
27/10:30am - - - - - WSW 7 15 4 8 - - -
27/10:00am - - - - - WSW 9 15 5 8 - - -

Other Formats:

Comma delimited format used in spreadsheet applications
http://www.bom.gov.au/fwo/IDQ60801/IDQ60801.94591.axf

JavaScript Object Notation format (JSON) in row-major order
http://www.bom.gov.au/fwo/IDQ60801/IDQ60801.94591.json